Balmorhea, TX (79718)

8:07 AM CDT on April 23, 2017 (GMT -0500)
Pecos Municipal | | Change Station

Elev 2612 ft 31.38 °N, 103.51 °W | Updated 12 minutes ago

Clear
Clear
45 °F
Feels Like 44 °F
N
4
Wind Variable Wind from South

Today
High -- | Low -- °F
--% Chance of Precip.
Yesterday
High -- | Low -- °F
Precip. -- in
Pressure 30.27 in
Visibility 10.0 miles
Clouds Clear
Windchill 44 °F
Dew Point 37 °F
Humidity 73%
Rainfall 0.00 in
Snow Depth Not available.
7:18 AM 8:28 PM
Waning Crescent, 12% visible
METAR KPEQ 231255Z AUTO 18003KT 10SM CLR 07/03 A3027 RMK AO2 T00730028
Pressure 30.27 in
Visibility 10.0 miles
Clouds Clear
Windchill 44 °F
Dew Point 37 °F
Humidity 73%
Rainfall 0.00 in
Snow Depth Not available.
7:18 AM 8:28 PM
Waning Crescent, 12% visible
METAR KPEQ 231255Z AUTO 18003KT 10SM CLR 07/03 A3027 RMK AO2 T00730028

Get Severe Weather Alerts

Thanks for signing up!

Be on the lookout for a verification email in your inbox.

You'll start receiving the daily forecast at 8 AM.

×

10-Day Weather Forecast

Almanac

Astronomy

Apr. 23, 2017 Rise Set
Actual Time
Civil Twilight
Nautical Twilight
Astronomical Twilight
Moon
Length of Visible Light
Length of Day
Tomorrow will be .
, % of the Moon is Illuminated

Today's Extremes

State Highs State Lows

Community

WunderPhotos

WunderBlog® & News

Nearby

Air Quality

  Air Quality AQ Index Pollutant
Not available.

Snow Depth

Station Depth Elevation

Earthquake Activity

City Distance Mag. Time & Date
Minimum magnitude displayed is 2.5.

Coastal Water Temperatures

Place Temperature

Stations

Nearby Weather Stations

Station Location Temp. Windchill Dew Point Humidity Wind Precip. Elev Updated Type
                   

Watches & Warnings

There are currently no watches in effect.